sensor_id;sensor_type;location;lat;lon;timestamp;P1;durP1;ratioP1;P2;durP2;ratioP2
62202;SDS011;48199;49.138;7.414;2023-08-20T00:02:25;15.65;;;11.40;;
62202;SDS011;48199;49.138;7.414;2023-08-20T00:04:50;19.67;;;13.27;;
62202;SDS011;48199;49.138;7.414;2023-08-20T00:07:15;26.50;;;13.13;;
62202;SDS011;48199;49.138;7.414;2023-08-20T00:09:43;21.90;;;14.63;;
62202;SDS011;48199;49.138;7.414;2023-08-20T00:12:08;20.70;;;13.43;;
62202;SDS011;48199;49.138;7.414;2023-08-20T00:17:18;18.60;;;12.40;;
62202;SDS011;48199;49.138;7.414;2023-08-20T00:19:44;26.20;;;12.57;;
62202;SDS011;48199;49.138;7.414;2023-08-20T00:22:09;25.75;;;11.82;;
62202;SDS011;48199;49.138;7.414;2023-08-20T00:24:35;20.50;;;12.68;;
62202;SDS011;48199;49.138;7.414;2023-08-20T00:27:00;23.30;;;14.48;;
62202;SDS011;48199;49.138;7.414;2023-08-20T00:29:26;32.67;;;16.27;;
62202;SDS011;48199;49.138;7.414;2023-08-20T00:31:51;28.53;;;15.13;;
62202;SDS011;48199;49.138;7.414;2023-08-20T00:34:16;24.97;;;15.83;;
62202;SDS011;48199;49.138;7.414;2023-08-20T00:36:41;28.83;;;14.67;;
62202;SDS011;48199;49.138;7.414;2023-08-20T00:39:06;30.23;;;14.40;;
62202;SDS011;48199;49.138;7.414;2023-08-20T00:41:32;22.67;;;13.20;;
62202;SDS011;48199;49.138;7.414;2023-08-20T00:43:57;21.87;;;13.17;;
62202;SDS011;48199;49.138;7.414;2023-08-20T00:46:22;24.53;;;11.40;;
62202;SDS011;48199;49.138;7.414;2023-08-20T00:48:48;22.95;;;12.23;;
62202;SDS011;48199;49.138;7.414;2023-08-20T00:51:13;23.13;;;11.80;;
62202;SDS011;48199;49.138;7.414;2023-08-20T00:53:38;26.52;;;13.55;;
62202;SDS011;48199;49.138;7.414;2023-08-20T00:56:03;35.33;;;12.90;;
62202;SDS011;48199;49.138;7.414;2023-08-20T00:58:29;25.67;;;12.40;;
62202;SDS011;48199;49.138;7.414;2023-08-20T01:00:54;33.40;;;14.03;;
62202;SDS011;48199;49.138;7.414;2023-08-20T01:03:19;23.20;;;14.30;;
62202;SDS011;48199;49.138;7.414;2023-08-20T01:05:46;26.07;;;13.93;;
62202;SDS011;48199;49.138;7.414;2023-08-20T01:08:23;21.10;;;13.40;;
62202;SDS011;48199;49.138;7.414;2023-08-20T01:10:56;20.85;;;12.40;;
62202;SDS011;48199;49.138;7.414;2023-08-20T01:13:22;28.63;;;13.63;;
62202;SDS011;48199;49.138;7.414;2023-08-20T01:15:48;27.45;;;13.38;;
62202;SDS011;48199;49.138;7.414;2023-08-20T01:18:13;17.90;;;11.93;;
62202;SDS011;48199;49.138;7.414;2023-08-20T01:20:43;20.07;;;13.50;;
62202;SDS011;48199;49.138;7.414;2023-08-20T01:26:00;22.98;;;12.55;;
62202;SDS011;48199;49.138;7.414;2023-08-20T01:28:30;23.75;;;13.30;;
62202;SDS011;48199;49.138;7.414;2023-08-20T01:30:56;22.98;;;12.75;;
62202;SDS011;48199;49.138;7.414;2023-08-20T01:33:22;24.23;;;13.63;;
62202;SDS011;48199;49.138;7.414;2023-08-20T01:35:47;22.88;;;12.43;;
62202;SDS011;48199;49.138;7.414;2023-08-20T01:38:12;26.27;;;13.77;;
62202;SDS011;48199;49.138;7.414;2023-08-20T01:40:38;18.77;;;12.88;;
62202;SDS011;48199;49.138;7.414;2023-08-20T01:43:03;21.58;;;12.15;;
62202;SDS011;48199;49.138;7.414;2023-08-20T01:45:28;25.70;;;12.17;;
62202;SDS011;48199;49.138;7.414;2023-08-20T01:47:53;21.20;;;11.53;;
62202;SDS011;48199;49.138;7.414;2023-08-20T01:50:19;16.53;;;11.60;;
62202;SDS011;48199;49.138;7.414;2023-08-20T01:52:44;35.60;;;12.05;;
62202;SDS011;48199;49.138;7.414;2023-08-20T01:55:10;26.83;;;12.75;;
62202;SDS011;48199;49.138;7.414;2023-08-20T01:57:35;29.85;;;12.15;;
62202;SDS011;48199;49.138;7.414;2023-08-20T02:00:00;48.58;;;11.80;;
62202;SDS011;48199;49.138;7.414;2023-08-20T02:02:25;57.67;;;11.65;;
62202;SDS011;48199;49.138;7.414;2023-08-20T02:04:51;20.03;;;12.30;;
62202;SDS011;48199;49.138;7.414;2023-08-20T02:07:16;15.13;;;10.87;;
62202;SDS011;48199;49.138;7.414;2023-08-20T02:09:41;18.88;;;11.07;;
62202;SDS011;48199;49.138;7.414;2023-08-20T02:12:07;20.67;;;11.07;;
62202;SDS011;48199;49.138;7.414;2023-08-20T02:14:32;17.17;;;10.88;;
62202;SDS011;48199;49.138;7.414;2023-08-20T02:17:00;18.30;;;11.15;;
62202;SDS011;48199;49.138;7.414;2023-08-20T02:19:25;28.65;;;11.20;;
62202;SDS011;48199;49.138;7.414;2023-08-20T02:21:51;17.27;;;11.70;;
62202;SDS011;48199;49.138;7.414;2023-08-20T02:24:16;18.37;;;11.93;;
62202;SDS011;48199;49.138;7.414;2023-08-20T02:26:41;21.97;;;10.57;;
62202;SDS011;48199;49.138;7.414;2023-08-20T02:29:06;18.80;;;11.53;;
62202;SDS011;48199;49.138;7.414;2023-08-20T02:31:31;20.90;;;10.97;;
62202;SDS011;48199;49.138;7.414;2023-08-20T02:33:56;16.23;;;10.13;;
62202;SDS011;48199;49.138;7.414;2023-08-20T02:36:22;23.03;;;11.70;;
62202;SDS011;48199;49.138;7.414;2023-08-20T02:38:47;16.47;;;10.50;;
62202;SDS011;48199;49.138;7.414;2023-08-20T02:41:12;26.03;;;11.20;;
62202;SDS011;48199;49.138;7.414;2023-08-20T02:43:37;18.97;;;10.37;;
62202;SDS011;48199;49.138;7.414;2023-08-20T02:46:02;19.27;;;10.53;;
62202;SDS011;48199;49.138;7.414;2023-08-20T02:48:28;17.00;;;10.50;;
62202;SDS011;48199;49.138;7.414;2023-08-20T02:50:54;24.02;;;12.15;;
62202;SDS011;48199;49.138;7.414;2023-08-20T02:53:19;21.90;;;10.98;;
62202;SDS011;48199;49.138;7.414;2023-08-20T02:55:45;17.30;;;9.98;;
62202;SDS011;48199;49.138;7.414;2023-08-20T02:58:10;15.50;;;10.77;;
62202;SDS011;48199;49.138;7.414;2023-08-20T03:00:35;21.43;;;10.60;;
62202;SDS011;48199;49.138;7.414;2023-08-20T03:03:01;13.10;;;10.10;;
62202;SDS011;48199;49.138;7.414;2023-08-20T03:05:29;18.17;;;10.52;;
62202;SDS011;48199;49.138;7.414;2023-08-20T03:07:54;15.30;;;9.87;;
62202;SDS011;48199;49.138;7.414;2023-08-20T03:10:19;19.10;;;11.07;;
62202;SDS011;48199;49.138;7.414;2023-08-20T03:12:44;21.80;;;11.00;;
62202;SDS011;48199;49.138;7.414;2023-08-20T03:15:09;16.77;;;10.80;;
62202;SDS011;48199;49.138;7.414;2023-08-20T03:17:35;19.70;;;9.63;;
62202;SDS011;48199;49.138;7.414;2023-08-20T03:20:00;15.47;;;9.60;;
62202;SDS011;48199;49.138;7.414;2023-08-20T03:22:26;15.95;;;10.27;;
62202;SDS011;48199;49.138;7.414;2023-08-20T03:24:52;20.08;;;12.23;;
62202;SDS011;48199;49.138;7.414;2023-08-20T03:27:17;22.73;;;12.85;;
62202;SDS011;48199;49.138;7.414;2023-08-20T03:29:43;18.50;;;11.93;;
62202;SDS011;48199;49.138;7.414;2023-08-20T03:32:08;24.02;;;13.05;;
62202;SDS011;48199;49.138;7.414;2023-08-20T03:34:34;20.15;;;12.43;;
62202;SDS011;48199;49.138;7.414;2023-08-20T03:36:59;18.83;;;11.87;;
62202;SDS011;48199;49.138;7.414;2023-08-20T03:39:24;17.07;;;11.17;;
62202;SDS011;48199;49.138;7.414;2023-08-20T03:41:49;18.40;;;12.00;;
62202;SDS011;48199;49.138;7.414;2023-08-20T03:44:15;20.80;;;10.40;;
62202;SDS011;48199;49.138;7.414;2023-08-20T03:46:40;21.90;;;10.48;;
62202;SDS011;48199;49.138;7.414;2023-08-20T03:49:05;19.30;;;11.07;;
62202;SDS011;48199;49.138;7.414;2023-08-20T03:51:30;17.50;;;11.10;;
62202;SDS011;48199;49.138;7.414;2023-08-20T03:53:56;16.63;;;11.23;;
62202;SDS011;48199;49.138;7.414;2023-08-20T03:56:21;18.03;;;10.53;;
62202;SDS011;48199;49.138;7.414;2023-08-20T03:58:46;22.58;;;11.30;;
62202;SDS011;48199;49.138;7.414;2023-08-20T04:01:11;16.05;;;11.93;;
62202;SDS011;48199;49.138;7.414;2023-08-20T04:03:37;17.27;;;11.03;;
62202;SDS011;48199;49.138;7.414;2023-08-20T04:06:02;18.37;;;11.13;;
62202;SDS011;48199;49.138;7.414;2023-08-20T04:08:28;14.30;;;9.45;;
62202;SDS011;48199;49.138;7.414;2023-08-20T04:10:53;16.02;;;9.57;;
62202;SDS011;48199;49.138;7.414;2023-08-20T04:13:19;25.40;;;10.20;;
62202;SDS011;48199;49.138;7.414;2023-08-20T04:15:44;22.02;;;10.30;;
62202;SDS011;48199;49.138;7.414;2023-08-20T04:18:09;22.63;;;10.27;;
62202;SDS011;48199;49.138;7.414;2023-08-20T04:20:35;27.00;;;11.87;;
62202;SDS011;48199;49.138;7.414;2023-08-20T04:23:00;29.52;;;10.45;;
62202;SDS011;48199;49.138;7.414;2023-08-20T04:25:26;20.20;;;10.20;;
62202;SDS011;48199;49.138;7.414;2023-08-20T04:27:51;16.75;;;10.50;;
62202;SDS011;48199;49.138;7.414;2023-08-20T04:30:17;15.93;;;10.73;;
62202;SDS011;48199;49.138;7.414;2023-08-20T04:32:42;24.35;;;11.30;;
62202;SDS011;48199;49.138;7.414;2023-08-20T04:35:07;15.30;;;11.70;;
62202;SDS011;48199;49.138;7.414;2023-08-20T04:37:32;22.80;;;10.77;;
62202;SDS011;48199;49.138;7.414;2023-08-20T04:39:58;16.03;;;9.67;;
62202;SDS011;48199;49.138;7.414;2023-08-20T04:42:23;15.77;;;10.80;;
62202;SDS011;48199;49.138;7.414;2023-08-20T04:44:48;19.08;;;10.07;;
62202;SDS011;48199;49.138;7.414;2023-08-20T04:47:14;13.93;;;10.00;;
62202;SDS011;48199;49.138;7.414;2023-08-20T04:49:39;15.17;;;9.77;;
62202;SDS011;48199;49.138;7.414;2023-08-20T04:52:04;15.38;;;9.82;;
62202;SDS011;48199;49.138;7.414;2023-08-20T04:54:30;18.20;;;10.40;;
62202;SDS011;48199;49.138;7.414;2023-08-20T04:56:55;19.40;;;10.77;;
62202;SDS011;48199;49.138;7.414;2023-08-20T04:59:20;18.23;;;10.95;;
62202;SDS011;48199;49.138;7.414;2023-08-20T05:01:45;25.53;;;10.90;;
62202;SDS011;48199;49.138;7.414;2023-08-20T05:04:10;20.80;;;11.43;;
62202;SDS011;48199;49.138;7.414;2023-08-20T05:06:36;17.48;;;11.13;;
62202;SDS011;48199;49.138;7.414;2023-08-20T05:09:02;16.98;;;10.52;;
62202;SDS011;48199;49.138;7.414;2023-08-20T05:11:27;17.08;;;11.07;;
62202;SDS011;48199;49.138;7.414;2023-08-20T05:13:56;17.48;;;9.50;;
62202;SDS011;48199;49.138;7.414;2023-08-20T05:16:21;14.03;;;10.07;;
62202;SDS011;48199;49.138;7.414;2023-08-20T05:18:46;20.90;;;10.97;;
62202;SDS011;48199;49.138;7.414;2023-08-20T05:21:11;22.17;;;10.37;;
62202;SDS011;48199;49.138;7.414;2023-08-20T05:23:38;20.63;;;10.85;;
62202;SDS011;48199;49.138;7.414;2023-08-20T05:26:03;31.60;;;10.93;;
62202;SDS011;48199;49.138;7.414;2023-08-20T05:28:29;18.57;;;11.00;;
62202;SDS011;48199;49.138;7.414;2023-08-20T05:30:55;22.63;;;11.03;;
62202;SDS011;48199;49.138;7.414;2023-08-20T05:33:21;20.70;;;11.15;;
62202;SDS011;48199;49.138;7.414;2023-08-20T05:35:46;25.53;;;10.97;;
62202;SDS011;48199;49.138;7.414;2023-08-20T05:38:11;19.27;;;10.60;;
62202;SDS011;48199;49.138;7.414;2023-08-20T05:40:36;23.40;;;10.50;;
62202;SDS011;48199;49.138;7.414;2023-08-20T05:43:01;18.97;;;10.80;;
62202;SDS011;48199;49.138;7.414;2023-08-20T05:45:27;15.87;;;11.50;;
62202;SDS011;48199;49.138;7.414;2023-08-20T05:47:52;22.70;;;10.47;;
62202;SDS011;48199;49.138;7.414;2023-08-20T05:50:17;19.43;;;9.73;;
62202;SDS011;48199;49.138;7.414;2023-08-20T05:52:42;14.50;;;9.83;;
62202;SDS011;48199;49.138;7.414;2023-08-20T05:55:07;14.83;;;8.53;;
62202;SDS011;48199;49.138;7.414;2023-08-20T05:57:33;12.88;;;8.63;;
62202;SDS011;48199;49.138;7.414;2023-08-20T05:59:58;20.65;;;8.75;;
62202;SDS011;48199;49.138;7.414;2023-08-20T06:02:23;14.00;;;7.43;;
62202;SDS011;48199;49.138;7.414;2023-08-20T06:04:49;10.70;;;7.60;;
62202;SDS011;48199;49.138;7.414;2023-08-20T06:07:16;20.55;;;7.80;;
62202;SDS011;48199;49.138;7.414;2023-08-20T06:09:41;15.57;;;8.57;;
62202;SDS011;48199;49.138;7.414;2023-08-20T06:12:06;9.70;;;7.57;;
62202;SDS011;48199;49.138;7.414;2023-08-20T06:14:31;13.27;;;7.55;;
62202;SDS011;48199;49.138;7.414;2023-08-20T06:16:57;17.23;;;8.37;;
62202;SDS011;48199;49.138;7.414;2023-08-20T06:19:22;13.63;;;8.37;;
62202;SDS011;48199;49.138;7.414;2023-08-20T06:21:48;23.30;;;8.02;;
62202;SDS011;48199;49.138;7.414;2023-08-20T06:24:13;15.20;;;8.88;;
62202;SDS011;48199;49.138;7.414;2023-08-20T06:26:38;15.03;;;8.43;;
62202;SDS011;48199;49.138;7.414;2023-08-20T06:29:03;13.60;;;8.33;;
62202;SDS011;48199;49.138;7.414;2023-08-20T06:31:29;19.60;;;7.80;;
62202;SDS011;48199;49.138;7.414;2023-08-20T06:33:54;19.97;;;8.20;;
62202;SDS011;48199;49.138;7.414;2023-08-20T06:36:19;19.10;;;8.10;;
62202;SDS011;48199;49.138;7.414;2023-08-20T06:38:44;16.70;;;8.43;;
62202;SDS011;48199;49.138;7.414;2023-08-20T06:41:09;12.53;;;8.53;;
62202;SDS011;48199;49.138;7.414;2023-08-20T06:43:35;13.70;;;8.57;;
62202;SDS011;48199;49.138;7.414;2023-08-20T06:46:00;15.57;;;8.40;;
62202;SDS011;48199;49.138;7.414;2023-08-20T06:48:25;15.17;;;8.93;;
62202;SDS011;48199;49.138;7.414;2023-08-20T06:50:51;19.10;;;9.00;;
62202;SDS011;48199;49.138;7.414;2023-08-20T06:53:16;13.05;;;9.57;;
62202;SDS011;48199;49.138;7.414;2023-08-20T06:55:42;17.93;;;9.00;;
62202;SDS011;48199;49.138;7.414;2023-08-20T06:58:07;19.50;;;9.37;;
62202;SDS011;48199;49.138;7.414;2023-08-20T07:00:32;16.00;;;9.00;;
62202;SDS011;48199;49.138;7.414;2023-08-20T07:02:57;24.30;;;8.90;;
62202;SDS011;48199;49.138;7.414;2023-08-20T07:05:22;17.13;;;9.47;;
62202;SDS011;48199;49.138;7.414;2023-08-20T07:07:48;16.03;;;9.20;;
62202;SDS011;48199;49.138;7.414;2023-08-20T07:10:13;19.93;;;9.10;;
62202;SDS011;48199;49.138;7.414;2023-08-20T07:12:38;12.97;;;7.97;;
62202;SDS011;48199;49.138;7.414;2023-08-20T07:15:04;20.58;;;11.57;;
62202;SDS011;48199;49.138;7.414;2023-08-20T07:17:29;18.65;;;11.45;;
62202;SDS011;48199;49.138;7.414;2023-08-20T07:19:54;16.77;;;10.53;;
62202;SDS011;48199;49.138;7.414;2023-08-20T07:22:19;17.50;;;10.37;;
62202;SDS011;48199;49.138;7.414;2023-08-20T07:24:45;15.20;;;10.20;;
62202;SDS011;48199;49.138;7.414;2023-08-20T07:27:10;17.57;;;11.43;;
62202;SDS011;48199;49.138;7.414;2023-08-20T07:29:38;20.35;;;11.85;;
62202;SDS011;48199;49.138;7.414;2023-08-20T07:32:03;20.43;;;11.97;;
62202;SDS011;48199;49.138;7.414;2023-08-20T07:34:29;19.30;;;10.10;;
62202;SDS011;48199;49.138;7.414;2023-08-20T07:36:55;19.05;;;11.38;;
62202;SDS011;48199;49.138;7.414;2023-08-20T07:39:21;15.93;;;10.88;;
62202;SDS011;48199;49.138;7.414;2023-08-20T07:41:47;23.07;;;11.20;;
62202;SDS011;48199;49.138;7.414;2023-08-20T07:44:12;23.47;;;11.07;;
62202;SDS011;48199;49.138;7.414;2023-08-20T07:46:37;20.57;;;10.20;;
62202;SDS011;48199;49.138;7.414;2023-08-20T07:49:02;14.60;;;10.17;;
62202;SDS011;48199;49.138;7.414;2023-08-20T07:51:27;16.48;;;10.15;;
62202;SDS011;48199;49.138;7.414;2023-08-20T07:53:53;16.33;;;9.13;;
62202;SDS011;48199;49.138;7.414;2023-08-20T07:56:18;16.60;;;9.10;;
62202;SDS011;48199;49.138;7.414;2023-08-20T07:58:43;15.70;;;9.40;;
62202;SDS011;48199;49.138;7.414;2023-08-20T08:01:08;13.83;;;9.33;;
62202;SDS011;48199;49.138;7.414;2023-08-20T08:03:34;14.73;;;9.57;;
62202;SDS011;48199;49.138;7.414;2023-08-20T08:05:59;14.07;;;10.13;;
62202;SDS011;48199;49.138;7.414;2023-08-20T08:08:24;14.88;;;9.60;;
62202;SDS011;48199;49.138;7.414;2023-08-20T08:10:49;13.07;;;8.50;;
62202;SDS011;48199;49.138;7.414;2023-08-20T08:13:15;20.05;;;9.40;;
62202;SDS011;48199;49.138;7.414;2023-08-20T08:15:41;16.65;;;9.15;;
62202;SDS011;48199;49.138;7.414;2023-08-20T08:18:06;11.48;;;8.23;;
62202;SDS011;48199;49.138;7.414;2023-08-20T08:20:32;20.48;;;9.13;;
62202;SDS011;48199;49.138;7.414;2023-08-20T08:22:57;15.50;;;8.88;;
62202;SDS011;48199;49.138;7.414;2023-08-20T08:25:22;15.43;;;9.20;;
62202;SDS011;48199;49.138;7.414;2023-08-20T08:27:48;13.93;;;7.80;;
62202;SDS011;48199;49.138;7.414;2023-08-20T08:30:13;12.70;;;8.23;;
62202;SDS011;48199;49.138;7.414;2023-08-20T08:32:39;13.60;;;8.13;;
62202;SDS011;48199;49.138;7.414;2023-08-20T08:35:04;16.47;;;8.30;;
62202;SDS011;48199;49.138;7.414;2023-08-20T08:37:30;12.13;;;8.02;;
62202;SDS011;48199;49.138;7.414;2023-08-20T08:39:55;11.57;;;8.27;;
62202;SDS011;48199;49.138;7.414;2023-08-20T08:42:21;15.47;;;8.50;;
62202;SDS011;48199;49.138;7.414;2023-08-20T08:44:47;13.02;;;7.90;;
62202;SDS011;48199;49.138;7.414;2023-08-20T08:47:12;12.25;;;6.95;;
62202;SDS011;48199;49.138;7.414;2023-08-20T08:49:38;13.50;;;7.57;;
62202;SDS011;48199;49.138;7.414;2023-08-20T08:52:03;11.47;;;7.30;;
62202;SDS011;48199;49.138;7.414;2023-08-20T08:54:29;11.18;;;7.18;;
62202;SDS011;48199;49.138;7.414;2023-08-20T08:56:55;12.55;;;7.70;;
62202;SDS011;48199;49.138;7.414;2023-08-20T08:59:21;11.73;;;7.68;;
62202;SDS011;48199;49.138;7.414;2023-08-20T09:01:46;14.17;;;8.40;;
62202;SDS011;48199;49.138;7.414;2023-08-20T09:04:11;15.50;;;7.40;;
62202;SDS011;48199;49.138;7.414;2023-08-20T09:06:46;15.40;;;6.57;;
62202;SDS011;48199;49.138;7.414;2023-08-20T09:09:11;9.63;;;6.55;;
62202;SDS011;48199;49.138;7.414;2023-08-20T09:11:37;14.43;;;7.25;;
62202;SDS011;48199;49.138;7.414;2023-08-20T09:14:02;13.43;;;6.40;;
62202;SDS011;48199;49.138;7.414;2023-08-20T09:16:29;15.30;;;6.68;;
62202;SDS011;48199;49.138;7.414;2023-08-20T09:18:54;15.65;;;6.57;;
62202;SDS011;48199;49.138;7.414;2023-08-20T09:21:20;12.70;;;6.50;;
62202;SDS011;48199;49.138;7.414;2023-08-20T09:23:53;14.60;;;6.65;;
62202;SDS011;48199;49.138;7.414;2023-08-20T09:26:18;11.95;;;6.80;;
62202;SDS011;48199;49.138;7.414;2023-08-20T09:28:45;15.20;;;7.03;;
62202;SDS011;48199;49.138;7.414;2023-08-20T09:31:10;12.10;;;6.32;;
62202;SDS011;48199;49.138;7.414;2023-08-20T09:33:35;11.18;;;6.15;;
62202;SDS011;48199;49.138;7.414;2023-08-20T09:36:02;11.73;;;5.72;;
62202;SDS011;48199;49.138;7.414;2023-08-20T09:38:28;11.82;;;5.55;;
62202;SDS011;48199;49.138;7.414;2023-08-20T09:40:53;14.80;;;5.60;;
62202;SDS011;48199;49.138;7.414;2023-08-20T09:43:21;13.27;;;5.90;;
62202;SDS011;48199;49.138;7.414;2023-08-20T09:45:48;13.77;;;6.15;;
62202;SDS011;48199;49.138;7.414;2023-08-20T09:48:18;11.10;;;5.57;;
62202;SDS011;48199;49.138;7.414;2023-08-20T09:50:49;8.90;;;5.65;;
62202;SDS011;48199;49.138;7.414;2023-08-20T09:53:26;7.60;;;4.97;;
62202;SDS011;48199;49.138;7.414;2023-08-20T09:55:52;14.18;;;5.00;;
62202;SDS011;48199;49.138;7.414;2023-08-20T09:58:18;12.35;;;5.38;;
62202;SDS011;48199;49.138;7.414;2023-08-20T10:00:46;15.70;;;5.40;;
62202;SDS011;48199;49.138;7.414;2023-08-20T10:03:12;11.90;;;5.10;;
62202;SDS011;48199;49.138;7.414;2023-08-20T10:05:37;11.05;;;5.75;;
62202;SDS011;48199;49.138;7.414;2023-08-20T10:08:03;12.57;;;5.07;;
62202;SDS011;48199;49.138;7.414;2023-08-20T10:10:28;8.57;;;4.93;;
62202;SDS011;48199;49.138;7.414;2023-08-20T10:12:54;10.20;;;5.27;;
62202;SDS011;48199;49.138;7.414;2023-08-20T10:15:21;9.68;;;5.05;;
62202;SDS011;48199;49.138;7.414;2023-08-20T10:17:49;12.73;;;5.78;;
62202;SDS011;48199;49.138;7.414;2023-08-20T10:20:14;9.93;;;5.47;;
62202;SDS011;48199;49.138;7.414;2023-08-20T10:22:43;12.25;;;5.10;;
62202;SDS011;48199;49.138;7.414;2023-08-20T10:25:09;10.68;;;4.80;;
62202;SDS011;48199;49.138;7.414;2023-08-20T10:27:36;10.25;;;5.20;;
62202;SDS011;48199;49.138;7.414;2023-08-20T10:30:03;9.05;;;5.20;;
62202;SDS011;48199;49.138;7.414;2023-08-20T10:32:48;8.63;;;4.90;;
62202;SDS011;48199;49.138;7.414;2023-08-20T10:35:18;9.30;;;5.07;;
62202;SDS011;48199;49.138;7.414;2023-08-20T10:38:16;9.48;;;5.40;;
62202;SDS011;48199;49.138;7.414;2023-08-20T10:43:01;15.93;;;5.10;;
62202;SDS011;48199;49.138;7.414;2023-08-20T10:45:26;6.95;;;4.70;;
62202;SDS011;48199;49.138;7.414;2023-08-20T10:47:51;11.07;;;5.00;;
62202;SDS011;48199;49.138;7.414;2023-08-20T10:50:18;7.38;;;5.18;;
62202;SDS011;48199;49.138;7.414;2023-08-20T10:52:50;10.48;;;4.90;;
62202;SDS011;48199;49.138;7.414;2023-08-20T10:55:22;9.18;;;4.80;;
62202;SDS011;48199;49.138;7.414;2023-08-20T10:57:54;10.15;;;4.97;;
62202;SDS011;48199;49.138;7.414;2023-08-20T11:02:44;10.80;;;4.80;;
62202;SDS011;48199;49.138;7.414;2023-08-20T11:05:17;6.88;;;4.32;;
62202;SDS011;48199;49.138;7.414;2023-08-20T11:07:44;8.88;;;4.90;;
62202;SDS011;48199;49.138;7.414;2023-08-20T11:10:10;13.50;;;5.40;;
62202;SDS011;48199;49.138;7.414;2023-08-20T11:12:35;10.43;;;5.23;;
62202;SDS011;48199;49.138;7.414;2023-08-20T11:15:01;11.88;;;4.93;;
62202;SDS011;48199;49.138;7.414;2023-08-20T11:17:27;10.93;;;4.95;;
62202;SDS011;48199;49.138;7.414;2023-08-20T11:19:53;11.77;;;4.80;;
62202;SDS011;48199;49.138;7.414;2023-08-20T11:22:18;8.68;;;4.82;;
62202;SDS011;48199;49.138;7.414;2023-08-20T11:24:43;7.65;;;4.75;;
62202;SDS011;48199;49.138;7.414;2023-08-20T11:27:09;7.60;;;4.50;;
62202;SDS011;48199;49.138;7.414;2023-08-20T11:29:34;10.57;;;5.47;;
62202;SDS011;48199;49.138;7.414;2023-08-20T11:31:59;9.27;;;4.80;;
62202;SDS011;48199;49.138;7.414;2023-08-20T11:34:28;10.43;;;5.38;;
62202;SDS011;48199;49.138;7.414;2023-08-20T11:36:54;11.40;;;4.93;;
62202;SDS011;48199;49.138;7.414;2023-08-20T11:39:19;10.05;;;4.80;;
62202;SDS011;48199;49.138;7.414;2023-08-20T11:41:44;7.47;;;4.55;;
62202;SDS011;48199;49.138;7.414;2023-08-20T11:44:10;7.85;;;4.90;;
62202;SDS011;48199;49.138;7.414;2023-08-20T11:46:41;9.20;;;5.03;;
62202;SDS011;48199;49.138;7.414;2023-08-20T11:49:08;9.43;;;4.93;;
62202;SDS011;48199;49.138;7.414;2023-08-20T11:51:37;11.13;;;4.82;;
62202;SDS011;48199;49.138;7.414;2023-08-20T11:54:04;9.43;;;5.00;;
62202;SDS011;48199;49.138;7.414;2023-08-20T11:56:30;12.02;;;4.82;;
62202;SDS011;48199;49.138;7.414;2023-08-20T11:58:58;8.90;;;4.80;;
62202;SDS011;48199;49.138;7.414;2023-08-20T12:01:24;7.70;;;4.88;;
62202;SDS011;48199;49.138;7.414;2023-08-20T12:03:49;10.80;;;5.13;;
62202;SDS011;48199;49.138;7.414;2023-08-20T12:06:18;8.87;;;5.07;;
62202;SDS011;48199;49.138;7.414;2023-08-20T12:08:43;9.52;;;5.07;;
62202;SDS011;48199;49.138;7.414;2023-08-20T12:11:09;10.63;;;5.27;;
62202;SDS011;48199;49.138;7.414;2023-08-20T12:13:34;11.18;;;5.40;;
62202;SDS011;48199;49.138;7.414;2023-08-20T12:15:59;9.60;;;5.40;;
62202;SDS011;48199;49.138;7.414;2023-08-20T12:18:24;16.33;;;5.73;;
62202;SDS011;48199;49.138;7.414;2023-08-20T12:20:50;11.40;;;5.28;;
62202;SDS011;48199;49.138;7.414;2023-08-20T12:23:15;13.75;;;5.93;;
62202;SDS011;48199;49.138;7.414;2023-08-20T12:25:41;9.32;;;5.47;;
62202;SDS011;48199;49.138;7.414;2023-08-20T12:28:07;12.27;;;6.05;;
62202;SDS011;48199;49.138;7.414;2023-08-20T12:30:33;12.15;;;5.40;;
62202;SDS011;48199;49.138;7.414;2023-08-20T12:33:01;12.18;;;5.82;;
62202;SDS011;48199;49.138;7.414;2023-08-20T12:35:27;12.68;;;5.72;;
62202;SDS011;48199;49.138;7.414;2023-08-20T12:37:52;9.53;;;5.47;;
62202;SDS011;48199;49.138;7.414;2023-08-20T12:40:18;8.67;;;4.93;;
62202;SDS011;48199;49.138;7.414;2023-08-20T12:42:43;10.27;;;5.05;;
62202;SDS011;48199;49.138;7.414;2023-08-20T12:45:08;13.80;;;4.75;;
62202;SDS011;48199;49.138;7.414;2023-08-20T12:47:35;10.63;;;5.53;;
62202;SDS011;48199;49.138;7.414;2023-08-20T12:50:01;9.07;;;5.07;;
62202;SDS011;48199;49.138;7.414;2023-08-20T12:52:28;16.02;;;5.20;;
62202;SDS011;48199;49.138;7.414;2023-08-20T12:54:53;8.97;;;4.83;;
62202;SDS011;48199;49.138;7.414;2023-08-20T12:57:18;15.57;;;5.50;;
62202;SDS011;48199;49.138;7.414;2023-08-20T12:59:43;8.73;;;5.40;;
62202;SDS011;48199;49.138;7.414;2023-08-20T13:02:10;12.33;;;6.23;;
62202;SDS011;48199;49.138;7.414;2023-08-20T13:04:35;12.63;;;6.00;;
62202;SDS011;48199;49.138;7.414;2023-08-20T13:07:00;10.50;;;6.03;;
62202;SDS011;48199;49.138;7.414;2023-08-20T13:09:26;11.05;;;5.63;;
62202;SDS011;48199;49.138;7.414;2023-08-20T13:11:52;10.88;;;5.85;;
62202;SDS011;48199;49.138;7.414;2023-08-20T13:14:18;9.82;;;5.40;;
62202;SDS011;48199;49.138;7.414;2023-08-20T13:16:43;16.90;;;5.95;;
62202;SDS011;48199;49.138;7.414;2023-08-20T13:19:09;12.27;;;5.63;;
62202;SDS011;48199;49.138;7.414;2023-08-20T13:21:34;7.95;;;4.90;;
62202;SDS011;48199;49.138;7.414;2023-08-20T13:23:59;10.93;;;5.90;;
62202;SDS011;48199;49.138;7.414;2023-08-20T13:26:24;9.07;;;4.93;;
62202;SDS011;48199;49.138;7.414;2023-08-20T13:28:50;11.67;;;5.23;;
62202;SDS011;48199;49.138;7.414;2023-08-20T13:31:15;13.40;;;5.68;;
62202;SDS011;48199;49.138;7.414;2023-08-20T13:33:40;12.57;;;5.10;;
62202;SDS011;48199;49.138;7.414;2023-08-20T13:36:05;9.77;;;5.60;;
62202;SDS011;48199;49.138;7.414;2023-08-20T13:38:32;11.07;;;5.88;;
62202;SDS011;48199;49.138;7.414;2023-08-20T13:40:57;10.55;;;5.47;;
62202;SDS011;48199;49.138;7.414;2023-08-20T13:43:23;11.93;;;5.70;;
62202;SDS011;48199;49.138;7.414;2023-08-20T13:45:48;9.63;;;5.25;;
62202;SDS011;48199;49.138;7.414;2023-08-20T13:48:13;14.98;;;5.53;;
62202;SDS011;48199;49.138;7.414;2023-08-20T13:50:39;10.57;;;5.37;;
62202;SDS011;48199;49.138;7.414;2023-08-20T13:53:04;13.23;;;5.87;;
62202;SDS011;48199;49.138;7.414;2023-08-20T13:55:29;9.83;;;5.00;;
62202;SDS011;48199;49.138;7.414;2023-08-20T13:57:56;12.45;;;5.38;;
62202;SDS011;48199;49.138;7.414;2023-08-20T14:00:21;13.25;;;4.95;;
62202;SDS011;48199;49.138;7.414;2023-08-20T14:02:46;10.93;;;5.10;;
62202;SDS011;48199;49.138;7.414;2023-08-20T14:05:11;10.40;;;5.20;;
62202;SDS011;48199;49.138;7.414;2023-08-20T14:07:37;8.63;;;5.50;;
62202;SDS011;48199;49.138;7.414;2023-08-20T14:10:02;14.07;;;5.32;;
62202;SDS011;48199;49.138;7.414;2023-08-20T14:12:29;9.45;;;5.38;;
62202;SDS011;48199;49.138;7.414;2023-08-20T14:14:54;14.65;;;6.00;;
62202;SDS011;48199;49.138;7.414;2023-08-20T14:17:19;11.30;;;5.63;;
62202;SDS011;48199;49.138;7.414;2023-08-20T14:19:44;11.33;;;5.10;;
62202;SDS011;48199;49.138;7.414;2023-08-20T14:22:10;12.27;;;6.03;;
62202;SDS011;48199;49.138;7.414;2023-08-20T14:24:35;11.57;;;5.23;;
62202;SDS011;48199;49.138;7.414;2023-08-20T14:27:00;9.40;;;5.20;;
62202;SDS011;48199;49.138;7.414;2023-08-20T14:29:25;12.67;;;5.43;;
62202;SDS011;48199;49.138;7.414;2023-08-20T14:31:50;10.57;;;5.90;;
62202;SDS011;48199;49.138;7.414;2023-08-20T14:34:16;11.33;;;5.03;;